sensor_id;sensor_type;location;lat;lon;timestamp;temperature;humidity
24207;DHT22;12351;52.284;9.160;2023-03-01T00:02:43;-0.90;99.90
24207;DHT22;12351;52.284;9.160;2023-03-01T00:05:30;-0.90;99.90
24207;DHT22;12351;52.284;9.160;2023-03-01T00:08:16;-1.00;99.90
24207;DHT22;12351;52.284;9.160;2023-03-01T00:11:06;-1.00;99.90
24207;DHT22;12351;52.284;9.160;2023-03-01T00:13:54;-1.00;99.90
24207;DHT22;12351;52.284;9.160;2023-03-01T00:16:42;-1.00;99.90
24207;DHT22;12351;52.284;9.160;2023-03-01T00:19:29;-1.00;99.90
24207;DHT22;12351;52.284;9.160;2023-03-01T00:22:17;-1.00;99.90
24207;DHT22;12351;52.284;9.160;2023-03-01T00:25:04;-1.10;99.90
24207;DHT22;12351;52.284;9.160;2023-03-01T00:27:51;-1.10;99.90
24207;DHT22;12351;52.284;9.160;2023-03-01T00:30:37;-1.10;99.90
24207;DHT22;12351;52.284;9.160;2023-03-01T00:33:23;-1.10;99.90
24207;DHT22;12351;52.284;9.160;2023-03-01T00:36:11;-1.10;99.90
24207;DHT22;12351;52.284;9.160;2023-03-01T00:38:58;-1.10;99.90
24207;DHT22;12351;52.284;9.160;2023-03-01T00:41:44;-1.20;99.90
24207;DHT22;12351;52.284;9.160;2023-03-01T00:44:31;-1.30;99.90
24207;DHT22;12351;52.284;9.160;2023-03-01T00:47:22;-1.40;1.00
24207;DHT22;12351;52.284;9.160;2023-03-01T00:50:11;-1.40;1.00
24207;DHT22;12351;52.284;9.160;2023-03-01T00:53:02;-1.40;1.00
24207;DHT22;12351;52.284;9.160;2023-03-01T00:55:54;-1.40;1.00
24207;DHT22;12351;52.284;9.160;2023-03-01T00:58:44;-1.50;1.00
24207;DHT22;12351;52.284;9.160;2023-03-01T01:01:35;-1.50;1.00
24207;DHT22;12351;52.284;9.160;2023-03-01T01:04:24;-1.40;1.00
24207;DHT22;12351;52.284;9.160;2023-03-01T01:07:17;-1.50;1.00
24207;DHT22;12351;52.284;9.160;2023-03-01T01:10:06;-1.50;1.00
24207;DHT22;12351;52.284;9.160;2023-03-01T01:12:57;-1.50;1.00
24207;DHT22;12351;52.284;9.160;2023-03-01T01:15:49;-1.50;1.00
24207;DHT22;12351;52.284;9.160;2023-03-01T01:18:39;-1.50;1.00
24207;DHT22;12351;52.284;9.160;2023-03-01T01:21:30;-1.60;1.00
24207;DHT22;12351;52.284;9.160;2023-03-01T01:24:17;-1.60;1.00
24207;DHT22;12351;52.284;9.160;2023-03-01T01:27:08;-1.60;1.00
24207;DHT22;12351;52.284;9.160;2023-03-01T01:29:56;-1.60;1.00
24207;DHT22;12351;52.284;9.160;2023-03-01T01:32:46;-1.60;1.00
24207;DHT22;12351;52.284;9.160;2023-03-01T01:35:36;-1.70;1.00
24207;DHT22;12351;52.284;9.160;2023-03-01T01:38:23;-1.70;1.00
24207;DHT22;12351;52.284;9.160;2023-03-01T01:41:13;-1.70;1.00
24207;DHT22;12351;52.284;9.160;2023-03-01T01:49:44;-1.70;1.00
24207;DHT22;12351;52.284;9.160;2023-03-01T01:52:34;-1.80;1.00
24207;DHT22;12351;52.284;9.160;2023-03-01T01:55:24;-1.90;1.00
24207;DHT22;12351;52.284;9.160;2023-03-01T01:58:16;-1.80;1.00
24207;DHT22;12351;52.284;9.160;2023-03-01T02:01:04;-1.90;1.00
24207;DHT22;12351;52.284;9.160;2023-03-01T02:03:55;-1.80;1.00
24207;DHT22;12351;52.284;9.160;2023-03-01T02:09:36;-1.90;1.00
24207;DHT22;12351;52.284;9.160;2023-03-01T02:12:24;-1.90;1.00
24207;DHT22;12351;52.284;9.160;2023-03-01T02:15:15;-1.80;1.00
24207;DHT22;12351;52.284;9.160;2023-03-01T02:18:05;-1.80;1.00
24207;DHT22;12351;52.284;9.160;2023-03-01T02:20:59;-1.90;1.00
24207;DHT22;12351;52.284;9.160;2023-03-01T02:23:45;-1.90;1.00
24207;DHT22;12351;52.284;9.160;2023-03-01T02:26:39;-1.90;1.00
24207;DHT22;12351;52.284;9.160;2023-03-01T02:29:29;-1.90;1.00
24207;DHT22;12351;52.284;9.160;2023-03-01T02:32:21;-2.00;1.00
24207;DHT22;12351;52.284;9.160;2023-03-01T02:35:13;-2.00;1.00
24207;DHT22;12351;52.284;9.160;2023-03-01T02:38:06;-2.00;1.00
24207;DHT22;12351;52.284;9.160;2023-03-01T02:40:55;-2.10;1.00
24207;DHT22;12351;52.284;9.160;2023-03-01T02:43:43;-2.20;1.00
24207;DHT22;12351;52.284;9.160;2023-03-01T02:46:33;-2.20;1.00
24207;DHT22;12351;52.284;9.160;2023-03-01T02:49:26;-2.20;1.00
24207;DHT22;12351;52.284;9.160;2023-03-01T02:55:07;-2.20;1.00
24207;DHT22;12351;52.284;9.160;2023-03-01T02:57:57;-2.10;1.00
24207;DHT22;12351;52.284;9.160;2023-03-01T03:00:49;-2.10;1.00
24207;DHT22;12351;52.284;9.160;2023-03-01T03:03:38;-2.10;1.00
24207;DHT22;12351;52.284;9.160;2023-03-01T03:06:27;-2.20;1.00
24207;DHT22;12351;52.284;9.160;2023-03-01T03:09:18;-2.20;1.00
24207;DHT22;12351;52.284;9.160;2023-03-01T03:14:57;-2.40;1.00
24207;DHT22;12351;52.284;9.160;2023-03-01T03:17:47;-2.40;1.00
24207;DHT22;12351;52.284;9.160;2023-03-01T03:20:36;-2.40;1.00
24207;DHT22;12351;52.284;9.160;2023-03-01T03:23:25;-2.40;1.00
24207;DHT22;12351;52.284;9.160;2023-03-01T03:26:15;-2.50;1.00
24207;DHT22;12351;52.284;9.160;2023-03-01T03:29:05;-2.50;1.00
24207;DHT22;12351;52.284;9.160;2023-03-01T03:31:54;-2.50;1.00
24207;DHT22;12351;52.284;9.160;2023-03-01T03:34:43;-2.50;1.00
24207;DHT22;12351;52.284;9.160;2023-03-01T03:37:34;-2.60;1.00
24207;DHT22;12351;52.284;9.160;2023-03-01T03:43:16;-2.50;1.00
24207;DHT22;12351;52.284;9.160;2023-03-01T03:46:06;-2.60;1.00
24207;DHT22;12351;52.284;9.160;2023-03-01T03:48:55;-2.50;1.00
24207;DHT22;12351;52.284;9.160;2023-03-01T03:51:45;-2.60;1.00
24207;DHT22;12351;52.284;9.160;2023-03-01T03:54:37;-2.60;1.00
24207;DHT22;12351;52.284;9.160;2023-03-01T03:57:26;-2.70;1.00
24207;DHT22;12351;52.284;9.160;2023-03-01T04:00:16;-2.70;1.00
24207;DHT22;12351;52.284;9.160;2023-03-01T04:03:06;-2.80;1.00
24207;DHT22;12351;52.284;9.160;2023-03-01T04:05:56;-2.80;1.00
24207;DHT22;12351;52.284;9.160;2023-03-01T04:08:45;-2.90;1.00
24207;DHT22;12351;52.284;9.160;2023-03-01T04:11:35;-2.80;1.00
24207;DHT22;12351;52.284;9.160;2023-03-01T04:14:24;-2.70;1.00
24207;DHT22;12351;52.284;9.160;2023-03-01T04:17:17;-2.80;1.00
24207;DHT22;12351;52.284;9.160;2023-03-01T04:20:08;-2.80;1.00
24207;DHT22;12351;52.284;9.160;2023-03-01T04:23:00;-2.80;1.00
24207;DHT22;12351;52.284;9.160;2023-03-01T04:25:52;-2.80;1.00
24207;DHT22;12351;52.284;9.160;2023-03-01T04:28:43;-2.90;1.00
24207;DHT22;12351;52.284;9.160;2023-03-01T04:31:32;-2.90;1.00
24207;DHT22;12351;52.284;9.160;2023-03-01T04:34:21;-2.90;1.00
24207;DHT22;12351;52.284;9.160;2023-03-01T04:37:13;-2.80;1.00
24207;DHT22;12351;52.284;9.160;2023-03-01T04:40:03;-2.70;1.00
24207;DHT22;12351;52.284;9.160;2023-03-01T04:42:54;-2.70;1.00
24207;DHT22;12351;52.284;9.160;2023-03-01T04:45:43;-2.70;1.00
24207;DHT22;12351;52.284;9.160;2023-03-01T04:48:32;-2.70;1.00
24207;DHT22;12351;52.284;9.160;2023-03-01T04:51:20;-2.70;1.00
24207;DHT22;12351;52.284;9.160;2023-03-01T04:54:09;-2.70;1.00
24207;DHT22;12351;52.284;9.160;2023-03-01T04:56:58;-2.60;1.00
24207;DHT22;12351;52.284;9.160;2023-03-01T04:59:50;-2.70;1.00
24207;DHT22;12351;52.284;9.160;2023-03-01T05:02:40;-2.70;1.00
24207;DHT22;12351;52.284;9.160;2023-03-01T05:05:31;-2.70;1.00
24207;DHT22;12351;52.284;9.160;2023-03-01T05:08:20;-2.80;1.00
24207;DHT22;12351;52.284;9.160;2023-03-01T05:11:10;-2.80;1.00
24207;DHT22;12351;52.284;9.160;2023-03-01T05:14:01;-2.90;1.00
24207;DHT22;12351;52.284;9.160;2023-03-01T05:16:52;-3.00;1.00
24207;DHT22;12351;52.284;9.160;2023-03-01T05:19:42;-3.00;1.00
24207;DHT22;12351;52.284;9.160;2023-03-01T05:22:30;-3.00;1.00
24207;DHT22;12351;52.284;9.160;2023-03-01T05:25:22;-3.00;1.00
24207;DHT22;12351;52.284;9.160;2023-03-01T05:28:11;-3.00;1.00
24207;DHT22;12351;52.284;9.160;2023-03-01T05:30:59;-3.00;1.00
24207;DHT22;12351;52.284;9.160;2023-03-01T05:33:49;-3.00;1.00
24207;DHT22;12351;52.284;9.160;2023-03-01T05:36:38;-3.00;1.00
24207;DHT22;12351;52.284;9.160;2023-03-01T05:39:28;-3.00;1.00
24207;DHT22;12351;52.284;9.160;2023-03-01T05:42:21;-3.10;1.00
24207;DHT22;12351;52.284;9.160;2023-03-01T05:45:13;-3.10;1.00
24207;DHT22;12351;52.284;9.160;2023-03-01T05:48:02;-3.10;1.00
24207;DHT22;12351;52.284;9.160;2023-03-01T05:50:51;-3.20;1.00
24207;DHT22;12351;52.284;9.160;2023-03-01T05:53:43;-3.20;1.00
24207;DHT22;12351;52.284;9.160;2023-03-01T05:56:36;-3.20;1.00
24207;DHT22;12351;52.284;9.160;2023-03-01T05:59:22;-3.20;1.00
24207;DHT22;12351;52.284;9.160;2023-03-01T06:02:08;-3.20;1.00
24207;DHT22;12351;52.284;9.160;2023-03-01T06:04:58;-3.30;1.00
24207;DHT22;12351;52.284;9.160;2023-03-01T06:07:46;-3.20;1.00
24207;DHT22;12351;52.284;9.160;2023-03-01T06:10:36;-3.20;1.00
24207;DHT22;12351;52.284;9.160;2023-03-01T06:13:26;-3.20;1.00
24207;DHT22;12351;52.284;9.160;2023-03-01T06:16:17;-3.20;1.00
24207;DHT22;12351;52.284;9.160;2023-03-01T06:19:08;-3.10;1.00
24207;DHT22;12351;52.284;9.160;2023-03-01T06:21:57;-3.20;1.00
24207;DHT22;12351;52.284;9.160;2023-03-01T06:24:49;-3.10;1.00
24207;DHT22;12351;52.284;9.160;2023-03-01T06:27:42;-3.10;1.00
24207;DHT22;12351;52.284;9.160;2023-03-01T06:30:32;-3.10;1.00
24207;DHT22;12351;52.284;9.160;2023-03-01T06:33:19;-3.20;1.00
24207;DHT22;12351;52.284;9.160;2023-03-01T06:36:12;-3.20;1.00
24207;DHT22;12351;52.284;9.160;2023-03-01T06:39:00;-3.10;1.00
24207;DHT22;12351;52.284;9.160;2023-03-01T06:41:50;-3.10;1.00
24207;DHT22;12351;52.284;9.160;2023-03-01T06:44:38;-3.10;1.00
24207;DHT22;12351;52.284;9.160;2023-03-01T06:47:26;-3.00;1.00
24207;DHT22;12351;52.284;9.160;2023-03-01T06:50:18;-3.10;1.00
24207;DHT22;12351;52.284;9.160;2023-03-01T06:53:06;-3.00;1.00
24207;DHT22;12351;52.284;9.160;2023-03-01T06:55:58;-3.10;1.00
24207;DHT22;12351;52.284;9.160;2023-03-01T06:58:50;-3.10;1.00
24207;DHT22;12351;52.284;9.160;2023-03-01T07:01:41;-3.10;1.00
24207;DHT22;12351;52.284;9.160;2023-03-01T07:04:30;-3.10;1.00
24207;DHT22;12351;52.284;9.160;2023-03-01T07:07:19;-3.00;1.00
24207;DHT22;12351;52.284;9.160;2023-03-01T07:10:10;-2.90;1.00
24207;DHT22;12351;52.284;9.160;2023-03-01T07:12:58;-2.80;1.00
24207;DHT22;12351;52.284;9.160;2023-03-01T07:15:47;-2.70;1.00
24207;DHT22;12351;52.284;9.160;2023-03-01T07:18:40;-2.60;1.00
24207;DHT22;12351;52.284;9.160;2023-03-01T07:21:29;-2.50;1.00
24207;DHT22;12351;52.284;9.160;2023-03-01T07:24:18;-2.40;1.00
24207;DHT22;12351;52.284;9.160;2023-03-01T07:27:08;-2.30;1.00
24207;DHT22;12351;52.284;9.160;2023-03-01T07:29:59;-2.20;1.00
24207;DHT22;12351;52.284;9.160;2023-03-01T07:32:47;-2.10;1.00
24207;DHT22;12351;52.284;9.160;2023-03-01T07:35:35;-2.00;1.00
24207;DHT22;12351;52.284;9.160;2023-03-01T07:38:27;-1.80;1.00
24207;DHT22;12351;52.284;9.160;2023-03-01T07:41:15;-1.70;1.00
24207;DHT22;12351;52.284;9.160;2023-03-01T07:44:05;-1.50;1.00
24207;DHT22;12351;52.284;9.160;2023-03-01T07:46:53;-1.50;1.00
24207;DHT22;12351;52.284;9.160;2023-03-01T07:49:44;-1.30;1.00
24207;DHT22;12351;52.284;9.160;2023-03-01T07:52:34;-1.20;1.00
24207;DHT22;12351;52.284;9.160;2023-03-01T07:55:23;-1.10;1.00
24207;DHT22;12351;52.284;9.160;2023-03-01T07:58:13;-1.00;1.00
24207;DHT22;12351;52.284;9.160;2023-03-01T08:03:53;-0.80;1.00
24207;DHT22;12351;52.284;9.160;2023-03-01T08:06:45;-0.70;1.00
24207;DHT22;12351;52.284;9.160;2023-03-01T08:09:34;-0.60;1.00
24207;DHT22;12351;52.284;9.160;2023-03-01T08:12:25;-0.40;1.00
24207;DHT22;12351;52.284;9.160;2023-03-01T08:15:16;-0.20;1.00
24207;DHT22;12351;52.284;9.160;2023-03-01T08:18:06;0.00;1.00
24207;DHT22;12351;52.284;9.160;2023-03-01T08:21:00;0.10;99.90
24207;DHT22;12351;52.284;9.160;2023-03-01T08:23:49;0.20;99.90
24207;DHT22;12351;52.284;9.160;2023-03-01T08:26:38;0.30;99.90
24207;DHT22;12351;52.284;9.160;2023-03-01T08:29:30;0.40;99.90
24207;DHT22;12351;52.284;9.160;2023-03-01T08:32:18;0.40;99.90
24207;DHT22;12351;52.284;9.160;2023-03-01T08:35:08;0.50;99.90
24207;DHT22;12351;52.284;9.160;2023-03-01T08:37:55;0.60;99.90
24207;DHT22;12351;52.284;9.160;2023-03-01T08:40:44;0.60;1.00
24207;DHT22;12351;52.284;9.160;2023-03-01T08:43:33;0.60;99.90
24207;DHT22;12351;52.284;9.160;2023-03-01T08:46:21;0.60;1.00
24207;DHT22;12351;52.284;9.160;2023-03-01T08:49:11;0.50;1.00
24207;DHT22;12351;52.284;9.160;2023-03-01T08:52:01;0.50;1.00
24207;DHT22;12351;52.284;9.160;2023-03-01T08:54:51;0.50;1.00
24207;DHT22;12351;52.284;9.160;2023-03-01T08:57:40;0.60;1.00
24207;DHT22;12351;52.284;9.160;2023-03-01T09:00:30;0.70;1.00
24207;DHT22;12351;52.284;9.160;2023-03-01T09:03:20;0.80;1.00
24207;DHT22;12351;52.284;9.160;2023-03-01T09:06:10;0.80;1.00
24207;DHT22;12351;52.284;9.160;2023-03-01T09:14:47;1.20;1.00
24207;DHT22;12351;52.284;9.160;2023-03-01T09:17:36;1.30;99.90
24207;DHT22;12351;52.284;9.160;2023-03-01T09:20:26;1.30;99.90
24207;DHT22;12351;52.284;9.160;2023-03-01T09:23:15;1.30;91.20
24207;DHT22;12351;52.284;9.160;2023-03-01T09:26:05;1.30;45.50
24207;DHT22;12351;52.284;9.160;2023-03-01T09:28:58;1.40;1.00
24207;DHT22;12351;52.284;9.160;2023-03-01T09:31:46;1.50;1.00
24207;DHT22;12351;52.284;9.160;2023-03-01T09:34:37;1.50;1.00
24207;DHT22;12351;52.284;9.160;2023-03-01T09:37:26;1.70;1.00
24207;DHT22;12351;52.284;9.160;2023-03-01T09:40:18;1.80;1.00
24207;DHT22;12351;52.284;9.160;2023-03-01T09:43:11;1.70;34.30
24207;DHT22;12351;52.284;9.160;2023-03-01T09:45:59;1.70;1.00
24207;DHT22;12351;52.284;9.160;2023-03-01T09:48:55;1.70;99.90
24207;DHT22;12351;52.284;9.160;2023-03-01T09:51:52;1.90;1.00
24207;DHT22;12351;52.284;9.160;2023-03-01T09:54:40;2.10;1.00
24207;DHT22;12351;52.284;9.160;2023-03-01T09:57:32;2.10;1.00
24207;DHT22;12351;52.284;9.160;2023-03-01T10:00:22;2.20;1.00
24207;DHT22;12351;52.284;9.160;2023-03-01T10:03:12;2.30;99.90
24207;DHT22;12351;52.284;9.160;2023-03-01T10:06:01;2.40;52.10
24207;DHT22;12351;52.284;9.160;2023-03-01T10:11:41;2.70;1.00
24207;DHT22;12351;52.284;9.160;2023-03-01T10:22:56;3.00;99.90
24207;DHT22;12351;52.284;9.160;2023-03-01T10:25:52;3.00;99.90
24207;DHT22;12351;52.284;9.160;2023-03-01T10:31:28;3.10;99.90
24207;DHT22;12351;52.284;9.160;2023-03-01T10:34:19;3.10;99.90
24207;DHT22;12351;52.284;9.160;2023-03-01T10:40:00;3.10;99.90
24207;DHT22;12351;52.284;9.160;2023-03-01T10:42:48;3.10;99.90
24207;DHT22;12351;52.284;9.160;2023-03-01T10:45:39;3.20;99.90
24207;DHT22;12351;52.284;9.160;2023-03-01T10:48:30;3.10;99.90
24207;DHT22;12351;52.284;9.160;2023-03-01T10:51:23;3.20;99.90
24207;DHT22;12351;52.284;9.160;2023-03-01T10:57:04;3.40;99.90
24207;DHT22;12351;52.284;9.160;2023-03-01T11:00:00;3.30;99.90
24207;DHT22;12351;52.284;9.160;2023-03-01T11:02:45;3.30;99.90
24207;DHT22;12351;52.284;9.160;2023-03-01T11:05:35;3.40;99.90
24207;DHT22;12351;52.284;9.160;2023-03-01T11:08:29;3.50;99.90
24207;DHT22;12351;52.284;9.160;2023-03-01T11:14:07;3.50;99.90
24207;DHT22;12351;52.284;9.160;2023-03-01T11:22:37;3.50;99.90
24207;DHT22;12351;52.284;9.160;2023-03-01T11:25:30;3.50;99.90
24207;DHT22;12351;52.284;9.160;2023-03-01T11:28:21;3.60;99.90
24207;DHT22;12351;52.284;9.160;2023-03-01T11:31:12;3.50;99.90
24207;DHT22;12351;52.284;9.160;2023-03-01T11:34:06;3.80;99.90
24207;DHT22;12351;52.284;9.160;2023-03-01T11:36:58;3.70;99.90
24207;DHT22;12351;52.284;9.160;2023-03-01T11:39:51;3.90;99.90
24207;DHT22;12351;52.284;9.160;2023-03-01T11:45:30;3.80;99.90
24207;DHT22;12351;52.284;9.160;2023-03-01T11:51:12;4.20;99.90
24207;DHT22;12351;52.284;9.160;2023-03-01T11:54:04;4.10;99.90
24207;DHT22;12351;52.284;9.160;2023-03-01T11:56:54;4.00;99.90
24207;DHT22;12351;52.284;9.160;2023-03-01T11:59:44;4.20;99.90
24207;DHT22;12351;52.284;9.160;2023-03-01T12:02:37;4.10;92.20
24207;DHT22;12351;52.284;9.160;2023-03-01T12:08:16;4.40;51.40
24207;DHT22;12351;52.284;9.160;2023-03-01T12:22:31;4.50;16.20
24207;DHT22;12351;52.284;9.160;2023-03-01T12:33:58;4.70;1.00
24207;DHT22;12351;52.284;9.160;2023-03-01T12:53:53;5.20;1.00
24207;DHT22;12351;52.284;9.160;2023-03-01T13:10:55;5.40;1.00
24207;DHT22;12351;52.284;9.160;2023-03-01T13:13:46;5.60;1.00
24207;DHT22;12351;52.284;9.160;2023-03-01T13:27:46;5.60;1.00
24207;DHT22;12351;52.284;9.160;2023-03-01T13:42:02;5.80;1.00
24207;DHT22;12351;52.284;9.160;2023-03-01T13:44:55;5.70;1.00
24207;DHT22;12351;52.284;9.160;2023-03-01T13:47:45;5.70;1.00
24207;DHT22;12351;52.284;9.160;2023-03-01T13:50:38;5.70;1.00
24207;DHT22;12351;52.284;9.160;2023-03-01T13:53:27;5.60;1.00
24207;DHT22;12351;52.284;9.160;2023-03-01T13:56:19;5.80;1.00
24207;DHT22;12351;52.284;9.160;2023-03-01T14:01:59;6.00;1.00
24207;DHT22;12351;52.284;9.160;2023-03-01T14:07:43;6.10;1.00
24207;DHT22;12351;52.284;9.160;2023-03-01T14:24:49;6.10;1.00
24207;DHT22;12351;52.284;9.160;2023-03-01T14:27:38;6.10;1.00
24207;DHT22;12351;52.284;9.160;2023-03-01T14:30:32;5.80;1.00
24207;DHT22;12351;52.284;9.160;2023-03-01T14:36:12;6.00;1.00
24207;DHT22;12351;52.284;9.160;2023-03-01T14:39:15;6.20;1.00
24207;DHT22;12351;52.284;9.160;2023-03-01T14:41:55;5.80;1.00
24207;DHT22;12351;52.284;9.160;2023-03-01T14:44:45;6.00;1.00
24207;DHT22;12351;52.284;9.160;2023-03-01T14:47:38;6.20;1.00
24207;DHT22;12351;52.284;9.160;2023-03-01T14:50:30;6.20;1.00
24207;DHT22;12351;52.284;9.160;2023-03-01T14:53:22;6.00;1.00
24207;DHT22;12351;52.284;9.160;2023-03-01T14:56:12;5.80;1.00
24207;DHT22;12351;52.284;9.160;2023-03-01T14:59:01;5.80;1.00
24207;DHT22;12351;52.284;9.160;2023-03-01T15:01:52;6.00;1.00
24207;DHT22;12351;52.284;9.160;2023-03-01T15:04:42;6.00;1.00
24207;DHT22;12351;52.284;9.160;2023-03-01T15:07:34;5.90;1.00
24207;DHT22;12351;52.284;9.160;2023-03-01T15:10:26;6.00;1.00
24207;DHT22;12351;52.284;9.160;2023-03-01T15:16:07;5.80;1.00
24207;DHT22;12351;52.284;9.160;2023-03-01T15:18:57;5.70;1.00
24207;DHT22;12351;52.284;9.160;2023-03-01T15:21:48;5.70;1.00
24207;DHT22;12351;52.284;9.160;2023-03-01T15:24:38;5.80;1.00
24207;DHT22;12351;52.284;9.160;2023-03-01T15:27:29;5.80;1.00
24207;DHT22;12351;52.284;9.160;2023-03-01T15:30:18;5.90;1.00
24207;DHT22;12351;52.284;9.160;2023-03-01T15:36:03;5.80;1.00
24207;DHT22;12351;52.284;9.160;2023-03-01T15:38:55;5.70;1.00
24207;DHT22;12351;52.284;9.160;2023-03-01T15:41:47;5.80;1.00
24207;DHT22;12351;52.284;9.160;2023-03-01T15:44:40;5.70;1.00
24207;DHT22;12351;52.284;9.160;2023-03-01T15:47:32;5.80;1.00
24207;DHT22;12351;52.284;9.160;2023-03-01T15:50:26;5.80;1.00
24207;DHT22;12351;52.284;9.160;2023-03-01T15:53:16;5.70;1.00
24207;DHT22;12351;52.284;9.160;2023-03-01T15:56:08;5.50;1.00
24207;DHT22;12351;52.284;9.160;2023-03-01T15:58:58;5.60;1.00
24207;DHT22;12351;52.284;9.160;2023-03-01T16:01:48;5.60;1.00
24207;DHT22;12351;52.284;9.160;2023-03-01T16:04:39;5.50;1.00
24207;DHT22;12351;52.284;9.160;2023-03-01T16:07:29;5.50;1.00
24207;DHT22;12351;52.284;9.160;2023-03-01T16:10:21;5.50;1.00
24207;DHT22;12351;52.284;9.160;2023-03-01T16:13:12;5.50;1.00
24207;DHT22;12351;52.284;9.160;2023-03-01T16:16:04;5.50;1.00
24207;DHT22;12351;52.284;9.160;2023-03-01T16:18:54;5.30;1.00
24207;DHT22;12351;52.284;9.160;2023-03-01T16:21:43;5.40;1.00
24207;DHT22;12351;52.284;9.160;2023-03-01T16:24:35;5.20;1.00
24207;DHT22;12351;52.284;9.160;2023-03-01T16:27:29;5.20;1.00
24207;DHT22;12351;52.284;9.160;2023-03-01T16:30:20;5.30;1.00
24207;DHT22;12351;52.284;9.160;2023-03-01T16:33:12;5.20;1.00
24207;DHT22;12351;52.284;9.160;2023-03-01T16:36:11;5.10;1.00
24207;DHT22;12351;52.284;9.160;2023-03-01T16:38:54;5.10;1.00
24207;DHT22;12351;52.284;9.160;2023-03-01T16:41:44;5.10;1.00
24207;DHT22;12351;52.284;9.160;2023-03-01T16:44:34;4.90;1.00
24207;DHT22;12351;52.284;9.160;2023-03-01T16:47:23;4.90;1.00
24207;DHT22;12351;52.284;9.160;2023-03-01T16:50:15;4.80;1.00
24207;DHT22;12351;52.284;9.160;2023-03-01T16:53:08;4.90;1.00
24207;DHT22;12351;52.284;9.160;2023-03-01T16:55:58;4.80;1.00
24207;DHT22;12351;52.284;9.160;2023-03-01T16:58:50;4.80;1.00
24207;DHT22;12351;52.284;9.160;2023-03-01T17:01:37;4.60;1.00
24207;DHT22;12351;52.284;9.160;2023-03-01T17:04:27;4.40;1.00
24207;DHT22;12351;52.284;9.160;2023-03-01T17:07:17;4.20;1.00
24207;DHT22;12351;52.284;9.160;2023-03-01T17:10:08;4.10;1.00
24207;DHT22;12351;52.284;9.160;2023-03-01T17:12:57;4.00;1.00
24207;DHT22;12351;52.284;9.160;2023-03-01T17:15:46;3.80;1.00
24207;DHT22;12351;52.284;9.160;2023-03-01T17:18:36;3.60;1.00
24207;DHT22;12351;52.284;9.160;2023-03-01T17:21:25;3.50;1.00
24207;DHT22;12351;52.284;9.160;2023-03-01T17:24:14;3.40;1.00
24207;DHT22;12351;52.284;9.160;2023-03-01T17:27:04;3.20;1.00
24207;DHT22;12351;52.284;9.160;2023-03-01T17:29:52;3.20;1.00
24207;DHT22;12351;52.284;9.160;2023-03-01T17:32:41;3.10;1.00
24207;DHT22;12351;52.284;9.160;2023-03-01T17:35:34;3.00;1.00
24207;DHT22;12351;52.284;9.160;2023-03-01T17:38:23;3.00;1.00
24207;DHT22;12351;52.284;9.160;2023-03-01T17:41:13;2.90;1.00
24207;DHT22;12351;52.284;9.160;2023-03-01T17:44:04;3.00;1.00
24207;DHT22;12351;52.284;9.160;2023-03-01T17:46:58;3.00;1.00
24207;DHT22;12351;52.284;9.160;2023-03-01T17:49:46;3.10;1.00
24207;DHT22;12351;52.284;9.160;2023-03-01T17:52:35;3.10;1.00
24207;DHT22;12351;52.284;9.160;2023-03-01T17:55:25;3.00;1.00
24207;DHT22;12351;52.284;9.160;2023-03-01T17:58:16;3.10;1.00
24207;DHT22;12351;52.284;9.160;2023-03-01T18:01:08;3.30;1.00
24207;DHT22;12351;52.284;9.160;2023-03-01T18:04:00;3.30;1.00
24207;DHT22;12351;52.284;9.160;2023-03-01T18:06:52;3.30;1.00
24207;DHT22;12351;52.284;9.160;2023-03-01T18:09:41;3.30;1.00
24207;DHT22;12351;52.284;9.160;2023-03-01T18:12:35;3.30;1.00
24207;DHT22;12351;52.284;9.160;2023-03-01T18:15:23;3.40;1.00
24207;DHT22;12351;52.284;9.160;2023-03-01T18:18:13;3.30;1.00
24207;DHT22;12351;52.284;9.160;2023-03-01T18:21:03;3.30;1.00
24207;DHT22;12351;52.284;9.160;2023-03-01T18:23:53;3.50;1.00
24207;DHT22;12351;52.284;9.160;2023-03-01T18:26:44;3.40;1.00
24207;DHT22;12351;52.284;9.160;2023-03-01T18:29:35;3.40;1.00
24207;DHT22;12351;52.284;9.160;2023-03-01T18:32:25;3.40;1.00
24207;DHT22;12351;52.284;9.160;2023-03-01T18:35:16;3.50;1.00
24207;DHT22;12351;52.284;9.160;2023-03-01T18:38:07;3.40;1.00
24207;DHT22;12351;52.284;9.160;2023-03-01T18:40:56;3.40;1.00
24207;DHT22;12351;52.284;9.160;2023-03-01T18:43:46;3.30;1.00
24207;DHT22;12351;52.284;9.160;2023-03-01T18:46:36;3.30;1.00
24207;DHT22;12351;52.284;9.160;2023-03-01T18:49:27;3.20;1.00
24207;DHT22;12351;52.284;9.160;2023-03-01T18:52:17;3.20;1.00
24207;DHT22;12351;52.284;9.160;2023-03-01T18:55:09;3.30;1.00
24207;DHT22;12351;52.284;9.160;2023-03-01T18:57:58;3.30;1.00
24207;DHT22;12351;52.284;9.160;2023-03-01T19:00:47;3.30;1.00
24207;DHT22;12351;52.284;9.160;2023-03-01T19:03:39;3.30;1.00
24207;DHT22;12351;52.284;9.160;2023-03-01T19:06:30;3.40;1.00
24207;DHT22;12351;52.284;9.160;2023-03-01T19:09:20;3.30;1.00
24207;DHT22;12351;52.284;9.160;2023-03-01T19:12:10;3.20;1.00
24207;DHT22;12351;52.284;9.160;2023-03-01T19:15:02;3.10;1.00
24207;DHT22;12351;52.284;9.160;2023-03-01T19:17:52;3.00;1.00
24207;DHT22;12351;52.284;9.160;2023-03-01T19:20:45;3.20;1.00
24207;DHT22;12351;52.284;9.160;2023-03-01T19:23:34;3.00;1.00
24207;DHT22;12351;52.284;9.160;2023-03-01T19:26:27;3.00;1.00
24207;DHT22;12351;52.284;9.160;2023-03-01T19:29:15;3.00;1.00
24207;DHT22;12351;52.284;9.160;2023-03-01T19:32:06;3.00;1.00
24207;DHT22;12351;52.284;9.160;2023-03-01T19:34:55;2.90;1.00
24207;DHT22;12351;52.284;9.160;2023-03-01T19:37:45;2.90;1.00
24207;DHT22;12351;52.284;9.160;2023-03-01T19:40:36;2.90;1.00
24207;DHT22;12351;52.284;9.160;2023-03-01T19:43:26;2.90;1.00
24207;DHT22;12351;52.284;9.160;2023-03-01T19:46:16;2.90;1.00
24207;DHT22;12351;52.284;9.160;2023-03-01T19:49:05;2.90;1.00
24207;DHT22;12351;52.284;9.160;2023-03-01T19:51:56;2.80;1.00
24207;DHT22;12351;52.284;9.160;2023-03-01T19:54:47;2.90;1.00
24207;DHT22;12351;52.284;9.160;2023-03-01T19:57:35;2.80;1.00
24207;DHT22;12351;52.284;9.160;2023-03-01T20:00:25;2.80;1.00
24207;DHT22;12351;52.284;9.160;2023-03-01T20:03:16;2.90;1.00
24207;DHT22;12351;52.284;9.160;2023-03-01T20:06:08;2.70;1.00
24207;DHT22;12351;52.284;9.160;2023-03-01T20:08:57;2.80;1.00
24207;DHT22;12351;52.284;9.160;2023-03-01T20:11:49;2.70;1.00
24207;DHT22;12351;52.284;9.160;2023-03-01T20:14:41;2.60;1.00
24207;DHT22;12351;52.284;9.160;2023-03-01T20:17:31;2.60;1.00
24207;DHT22;12351;52.284;9.160;2023-03-01T20:20:19;2.60;1.00
24207;DHT22;12351;52.284;9.160;2023-03-01T20:23:11;2.60;1.00
24207;DHT22;12351;52.284;9.160;2023-03-01T20:26:03;2.60;1.00
24207;DHT22;12351;52.284;9.160;2023-03-01T20:28:52;2.50;1.00
24207;DHT22;12351;52.284;9.160;2023-03-01T20:31:41;2.50;1.00
24207;DHT22;12351;52.284;9.160;2023-03-01T20:34:32;2.50;1.00
24207;DHT22;12351;52.284;9.160;2023-03-01T20:37:26;2.50;1.00
24207;DHT22;12351;52.284;9.160;2023-03-01T20:40:17;2.50;1.00
24207;DHT22;12351;52.284;9.160;2023-03-01T20:43:06;2.40;1.00
24207;DHT22;12351;52.284;9.160;2023-03-01T20:45:56;2.50;1.00
24207;DHT22;12351;52.284;9.160;2023-03-01T20:48:48;2.50;1.00
24207;DHT22;12351;52.284;9.160;2023-03-01T20:51:39;2.40;1.00
24207;DHT22;12351;52.284;9.160;2023-03-01T20:54:30;2.40;1.00
24207;DHT22;12351;52.284;9.160;2023-03-01T20:57:19;2.40;1.00
24207;DHT22;12351;52.284;9.160;2023-03-01T21:00:09;2.50;1.00
24207;DHT22;12351;52.284;9.160;2023-03-01T21:02:59;2.50;1.00
24207;DHT22;12351;52.284;9.160;2023-03-01T21:05:53;2.50;1.00